sensor_id;sensor_type;location;lat;lon;timestamp;temperature;humidity
1878;DHT22;939;51.426;6.972;2023-03-20T00:04:35;10.90;99.90
1878;DHT22;939;51.426;6.972;2023-03-20T00:07:02;10.90;99.90
1878;DHT22;939;51.426;6.972;2023-03-20T00:09:29;10.80;99.90
1878;DHT22;939;51.426;6.972;2023-03-20T00:11:57;10.90;99.90
1878;DHT22;939;51.426;6.972;2023-03-20T00:14:24;10.90;99.90
1878;DHT22;939;51.426;6.972;2023-03-20T00:16:51;11.00;99.90
1878;DHT22;939;51.426;6.972;2023-03-20T00:19:19;11.00;99.90
1878;DHT22;939;51.426;6.972;2023-03-20T00:21:50;11.00;99.90
1878;DHT22;939;51.426;6.972;2023-03-20T00:24:18;10.80;99.90
1878;DHT22;939;51.426;6.972;2023-03-20T00:26:46;10.90;99.90
1878;DHT22;939;51.426;6.972;2023-03-20T00:29:17;11.00;99.90
1878;DHT22;939;51.426;6.972;2023-03-20T00:31:45;11.00;99.90
1878;DHT22;939;51.426;6.972;2023-03-20T00:34:14;11.00;99.90
1878;DHT22;939;51.426;6.972;2023-03-20T00:36:42;11.00;99.90
1878;DHT22;939;51.426;6.972;2023-03-20T00:39:10;11.00;99.90
1878;DHT22;939;51.426;6.972;2023-03-20T00:41:41;10.90;99.90
1878;DHT22;939;51.426;6.972;2023-03-20T00:44:20;11.00;99.90
1878;DHT22;939;51.426;6.972;2023-03-20T00:46:50;10.90;99.90
1878;DHT22;939;51.426;6.972;2023-03-20T00:49:18;10.90;99.90
1878;DHT22;939;51.426;6.972;2023-03-20T00:51:46;10.80;99.90
1878;DHT22;939;51.426;6.972;2023-03-20T00:54:16;10.80;99.90
1878;DHT22;939;51.426;6.972;2023-03-20T00:56:44;10.90;99.90
1878;DHT22;939;51.426;6.972;2023-03-20T00:59:16;10.80;99.90
1878;DHT22;939;51.426;6.972;2023-03-20T01:01:44;10.80;99.90
1878;DHT22;939;51.426;6.972;2023-03-20T01:04:12;10.80;99.90
1878;DHT22;939;51.426;6.972;2023-03-20T01:06:40;10.80;99.90
1878;DHT22;939;51.426;6.972;2023-03-20T01:09:07;10.80;99.90
1878;DHT22;939;51.426;6.972;2023-03-20T01:11:36;10.80;99.90
1878;DHT22;939;51.426;6.972;2023-03-20T01:14:04;10.70;99.90
1878;DHT22;939;51.426;6.972;2023-03-20T01:16:31;10.70;99.90
1878;DHT22;939;51.426;6.972;2023-03-20T01:18:58;10.70;99.90
1878;DHT22;939;51.426;6.972;2023-03-20T01:21:25;10.70;99.90
1878;DHT22;939;51.426;6.972;2023-03-20T01:23:52;10.60;99.90
1878;DHT22;939;51.426;6.972;2023-03-20T01:26:33;10.50;99.90
1878;DHT22;939;51.426;6.972;2023-03-20T01:29:02;10.60;99.90
1878;DHT22;939;51.426;6.972;2023-03-20T01:31:29;10.60;99.90
1878;DHT22;939;51.426;6.972;2023-03-20T01:33:56;10.50;99.90
1878;DHT22;939;51.426;6.972;2023-03-20T01:36:24;10.50;99.90
1878;DHT22;939;51.426;6.972;2023-03-20T01:38:54;10.50;99.90
1878;DHT22;939;51.426;6.972;2023-03-20T08:35:22;10.30;99.90
1878;DHT22;939;51.426;6.972;2023-03-20T08:41:46;10.30;99.90
1878;DHT22;939;51.426;6.972;2023-03-20T08:44:13;10.40;99.90
1878;DHT22;939;51.426;6.972;2023-03-20T08:46:40;10.40;99.90
1878;DHT22;939;51.426;6.972;2023-03-20T08:49:09;10.50;99.90
1878;DHT22;939;51.426;6.972;2023-03-20T08:51:37;10.50;99.90
1878;DHT22;939;51.426;6.972;2023-03-20T08:54:04;10.40;99.90
1878;DHT22;939;51.426;6.972;2023-03-20T08:56:31;10.50;99.90
1878;DHT22;939;51.426;6.972;2023-03-20T08:58:58;10.50;99.90
1878;DHT22;939;51.426;6.972;2023-03-20T09:01:25;10.50;99.90
1878;DHT22;939;51.426;6.972;2023-03-20T09:03:52;10.60;99.90
1878;DHT22;939;51.426;6.972;2023-03-20T09:06:19;10.50;99.90
1878;DHT22;939;51.426;6.972;2023-03-20T09:08:47;10.60;99.90
1878;DHT22;939;51.426;6.972;2023-03-20T09:11:15;10.60;99.90
1878;DHT22;939;51.426;6.972;2023-03-20T09:13:42;10.50;99.90
1878;DHT22;939;51.426;6.972;2023-03-20T09:16:09;10.60;99.90
1878;DHT22;939;51.426;6.972;2023-03-20T09:18:36;10.60;99.90
1878;DHT22;939;51.426;6.972;2023-03-20T09:21:03;10.60;99.90
1878;DHT22;939;51.426;6.972;2023-03-20T09:23:30;10.60;99.90
1878;DHT22;939;51.426;6.972;2023-03-20T09:25:59;10.60;99.90
1878;DHT22;939;51.426;6.972;2023-03-20T09:28:26;10.70;99.90
1878;DHT22;939;51.426;6.972;2023-03-20T09:30:54;10.70;99.90
1878;DHT22;939;51.426;6.972;2023-03-20T09:33:26;10.70;99.90
1878;DHT22;939;51.426;6.972;2023-03-20T09:35:53;10.80;99.90
1878;DHT22;939;51.426;6.972;2023-03-20T09:38:20;10.80;99.90
1878;DHT22;939;51.426;6.972;2023-03-20T09:40:50;10.80;99.90
1878;DHT22;939;51.426;6.972;2023-03-20T09:43:28;10.90;99.90
1878;DHT22;939;51.426;6.972;2023-03-20T09:46:06;10.90;99.90
1878;DHT22;939;51.426;6.972;2023-03-20T09:48:40;10.90;99.90
1878;DHT22;939;51.426;6.972;2023-03-20T09:51:18;10.90;99.90
1878;DHT22;939;51.426;6.972;2023-03-20T09:53:49;10.90;99.90
1878;DHT22;939;51.426;6.972;2023-03-20T09:56:23;10.80;99.90
1878;DHT22;939;51.426;6.972;2023-03-20T09:58:56;10.80;99.90
1878;DHT22;939;51.426;6.972;2023-03-20T10:01:28;10.70;99.90
1878;DHT22;939;51.426;6.972;2023-03-20T10:03:58;10.70;99.90
1878;DHT22;939;51.426;6.972;2023-03-20T10:06:28;10.70;99.90
1878;DHT22;939;51.426;6.972;2023-03-20T10:08:55;10.70;99.90
1878;DHT22;939;51.426;6.972;2023-03-20T10:11:43;10.70;99.90
1878;DHT22;939;51.426;6.972;2023-03-20T10:14:23;10.70;99.90
1878;DHT22;939;51.426;6.972;2023-03-20T10:17:04;10.70;99.90
1878;DHT22;939;51.426;6.972;2023-03-20T10:19:37;10.90;99.90
1878;DHT22;939;51.426;6.972;2023-03-20T10:22:15;10.80;99.90
1878;DHT22;939;51.426;6.972;2023-03-20T10:24:47;10.80;99.90
1878;DHT22;939;51.426;6.972;2023-03-20T10:27:20;10.80;99.90
1878;DHT22;939;51.426;6.972;2023-03-20T10:29:58;10.80;99.90
1878;DHT22;939;51.426;6.972;2023-03-20T10:32:31;10.90;99.90
1878;DHT22;939;51.426;6.972;2023-03-20T10:35:14;10.90;99.90
1878;DHT22;939;51.426;6.972;2023-03-20T10:37:53;11.00;99.90
1878;DHT22;939;51.426;6.972;2023-03-20T10:40:29;11.10;99.90
1878;DHT22;939;51.426;6.972;2023-03-20T10:43:00;11.20;99.90
1878;DHT22;939;51.426;6.972;2023-03-20T10:45:36;11.20;99.90
1878;DHT22;939;51.426;6.972;2023-03-20T10:48:09;11.30;99.90
1878;DHT22;939;51.426;6.972;2023-03-20T10:50:42;11.50;99.90
1878;DHT22;939;51.426;6.972;2023-03-20T10:53:20;11.50;99.90
1878;DHT22;939;51.426;6.972;2023-03-20T10:55:50;11.60;99.90
1878;DHT22;939;51.426;6.972;2023-03-20T10:58:21;11.70;99.90
1878;DHT22;939;51.426;6.972;2023-03-20T11:00:50;11.60;99.90
1878;DHT22;939;51.426;6.972;2023-03-20T11:03:22;11.70;99.90
1878;DHT22;939;51.426;6.972;2023-03-20T11:05:53;11.80;99.90
1878;DHT22;939;51.426;6.972;2023-03-20T11:08:24;11.90;99.90
1878;DHT22;939;51.426;6.972;2023-03-20T11:10:58;11.90;99.90
1878;DHT22;939;51.426;6.972;2023-03-20T11:13:29;11.90;99.90
1878;DHT22;939;51.426;6.972;2023-03-20T11:16:07;11.90;99.90
1878;DHT22;939;51.426;6.972;2023-03-20T11:18:35;12.00;99.90
1878;DHT22;939;51.426;6.972;2023-03-20T11:21:03;12.20;99.90
1878;DHT22;939;51.426;6.972;2023-03-20T11:23:32;12.20;99.90
1878;DHT22;939;51.426;6.972;2023-03-20T11:26:00;12.20;99.90
1878;DHT22;939;51.426;6.972;2023-03-20T11:28:33;12.20;99.90
1878;DHT22;939;51.426;6.972;2023-03-20T11:31:05;12.00;99.90
1878;DHT22;939;51.426;6.972;2023-03-20T11:33:36;12.00;99.90
1878;DHT22;939;51.426;6.972;2023-03-20T11:36:10;11.90;99.90
1878;DHT22;939;51.426;6.972;2023-03-20T11:38:43;11.80;99.90
1878;DHT22;939;51.426;6.972;2023-03-20T11:41:17;11.90;99.90
1878;DHT22;939;51.426;6.972;2023-03-20T11:43:45;11.70;99.90
1878;DHT22;939;51.426;6.972;2023-03-20T11:46:13;11.70;99.90
1878;DHT22;939;51.426;6.972;2023-03-20T11:48:45;11.70;99.90
1878;DHT22;939;51.426;6.972;2023-03-20T11:51:15;11.70;99.90
1878;DHT22;939;51.426;6.972;2023-03-20T11:53:57;11.70;99.90
1878;DHT22;939;51.426;6.972;2023-03-20T11:56:27;11.60;99.90
1878;DHT22;939;51.426;6.972;2023-03-20T11:58:56;11.60;99.90
1878;DHT22;939;51.426;6.972;2023-03-20T12:01:26;11.50;99.90
1878;DHT22;939;51.426;6.972;2023-03-20T12:04:00;11.40;99.90
1878;DHT22;939;51.426;6.972;2023-03-20T12:06:40;11.40;99.90
1878;DHT22;939;51.426;6.972;2023-03-20T12:09:13;11.40;99.90
1878;DHT22;939;51.426;6.972;2023-03-20T12:11:45;11.30;99.90
1878;DHT22;939;51.426;6.972;2023-03-20T12:14:22;11.30;99.90
1878;DHT22;939;51.426;6.972;2023-03-20T12:16:55;11.40;99.90
1878;DHT22;939;51.426;6.972;2023-03-20T12:19:29;11.50;99.90
1878;DHT22;939;51.426;6.972;2023-03-20T12:22:01;11.40;99.90
1878;DHT22;939;51.426;6.972;2023-03-20T12:24:34;11.40;99.90
1878;DHT22;939;51.426;6.972;2023-03-20T12:27:14;11.40;99.90
1878;DHT22;939;51.426;6.972;2023-03-20T12:29:46;11.40;99.90
1878;DHT22;939;51.426;6.972;2023-03-20T12:32:19;11.40;99.90
1878;DHT22;939;51.426;6.972;2023-03-20T12:34:51;11.40;99.90
1878;DHT22;939;51.426;6.972;2023-03-20T12:37:21;11.30;99.90
1878;DHT22;939;51.426;6.972;2023-03-20T12:39:50;11.40;99.90
1878;DHT22;939;51.426;6.972;2023-03-20T12:42:27;11.20;99.90
1878;DHT22;939;51.426;6.972;2023-03-20T12:45:02;11.10;99.90
1878;DHT22;939;51.426;6.972;2023-03-20T12:47:55;11.20;99.90
1878;DHT22;939;51.426;6.972;2023-03-20T12:50:31;11.20;99.90
1878;DHT22;939;51.426;6.972;2023-03-20T12:53:15;11.10;99.90
1878;DHT22;939;51.426;6.972;2023-03-20T12:55:57;11.10;99.90
1878;DHT22;939;51.426;6.972;2023-03-20T12:58:34;11.10;99.90
1878;DHT22;939;51.426;6.972;2023-03-20T13:01:07;11.10;99.90
1878;DHT22;939;51.426;6.972;2023-03-20T13:03:53;11.20;99.90
1878;DHT22;939;51.426;6.972;2023-03-20T13:06:29;11.40;99.90
1878;DHT22;939;51.426;6.972;2023-03-20T13:11:57;11.40;99.90
1878;DHT22;939;51.426;6.972;2023-03-20T13:14:30;11.40;99.90
1878;DHT22;939;51.426;6.972;2023-03-20T13:17:04;11.40;99.90
1878;DHT22;939;51.426;6.972;2023-03-20T13:19:42;11.30;99.90
1878;DHT22;939;51.426;6.972;2023-03-20T13:22:14;11.30;99.90
1878;DHT22;939;51.426;6.972;2023-03-20T13:24:46;11.50;99.90
1878;DHT22;939;51.426;6.972;2023-03-20T13:27:21;11.50;99.90
1878;DHT22;939;51.426;6.972;2023-03-20T13:29:55;11.40;99.90
1878;DHT22;939;51.426;6.972;2023-03-20T13:32:32;11.50;99.90
1878;DHT22;939;51.426;6.972;2023-03-20T13:35:33;11.30;99.90
1878;DHT22;939;51.426;6.972;2023-03-20T13:38:08;11.40;99.90
1878;DHT22;939;51.426;6.972;2023-03-20T13:40:39;11.40;99.90
1878;DHT22;939;51.426;6.972;2023-03-20T13:43:23;11.30;99.90
1878;DHT22;939;51.426;6.972;2023-03-20T13:45:55;11.20;99.90
1878;DHT22;939;51.426;6.972;2023-03-20T13:48:29;11.10;99.90
1878;DHT22;939;51.426;6.972;2023-03-20T13:51:07;11.10;99.90
1878;DHT22;939;51.426;6.972;2023-03-20T13:53:46;10.90;99.90
1878;DHT22;939;51.426;6.972;2023-03-20T13:56:25;11.10;99.90
1878;DHT22;939;51.426;6.972;2023-03-20T13:59:14;10.90;99.90
1878;DHT22;939;51.426;6.972;2023-03-20T14:01:54;11.00;99.90
1878;DHT22;939;51.426;6.972;2023-03-20T14:04:23;10.90;99.90
1878;DHT22;939;51.426;6.972;2023-03-20T14:06:53;11.00;99.90
1878;DHT22;939;51.426;6.972;2023-03-20T14:09:29;11.10;99.90
1878;DHT22;939;51.426;6.972;2023-03-20T14:12:00;11.10;99.90
1878;DHT22;939;51.426;6.972;2023-03-20T14:14:30;11.30;99.90
1878;DHT22;939;51.426;6.972;2023-03-20T14:17:06;11.40;99.90
1878;DHT22;939;51.426;6.972;2023-03-20T14:19:36;11.20;99.90
1878;DHT22;939;51.426;6.972;2023-03-20T14:22:05;11.30;99.90
1878;DHT22;939;51.426;6.972;2023-03-20T14:24:35;11.30;99.90
1878;DHT22;939;51.426;6.972;2023-03-20T14:27:05;11.20;99.90
1878;DHT22;939;51.426;6.972;2023-03-20T14:29:36;11.00;99.90
1878;DHT22;939;51.426;6.972;2023-03-20T14:35:24;11.10;99.90
1878;DHT22;939;51.426;6.972;2023-03-20T14:40:59;11.20;99.90
1878;DHT22;939;51.426;6.972;2023-03-20T14:43:41;11.30;99.90
1878;DHT22;939;51.426;6.972;2023-03-20T14:46:18;11.20;99.90
1878;DHT22;939;51.426;6.972;2023-03-20T14:48:53;11.30;99.90
1878;DHT22;939;51.426;6.972;2023-03-20T14:51:30;11.40;99.90
1878;DHT22;939;51.426;6.972;2023-03-20T18:18:37;10.40;99.90
1878;DHT22;939;51.426;6.972;2023-03-20T18:21:05;10.40;99.90
1878;DHT22;939;51.426;6.972;2023-03-20T18:23:32;10.50;99.90
1878;DHT22;939;51.426;6.972;2023-03-20T18:26:02;10.50;99.90
1878;DHT22;939;51.426;6.972;2023-03-20T18:28:29;10.50;99.90
1878;DHT22;939;51.426;6.972;2023-03-20T18:30:55;10.60;99.90
1878;DHT22;939;51.426;6.972;2023-03-20T18:33:22;10.60;99.90
1878;DHT22;939;51.426;6.972;2023-03-20T18:35:55;10.50;99.90
1878;DHT22;939;51.426;6.972;2023-03-20T18:38:22;10.60;99.90
1878;DHT22;939;51.426;6.972;2023-03-20T18:40:50;10.60;99.90
1878;DHT22;939;51.426;6.972;2023-03-20T18:43:17;10.70;99.90
1878;DHT22;939;51.426;6.972;2023-03-20T18:45:44;10.60;99.90
1878;DHT22;939;51.426;6.972;2023-03-20T18:48:11;10.70;99.90
1878;DHT22;939;51.426;6.972;2023-03-20T18:50:39;10.80;99.90
1878;DHT22;939;51.426;6.972;2023-03-20T18:53:09;10.70;99.90
1878;DHT22;939;51.426;6.972;2023-03-20T18:55:36;10.70;99.90
1878;DHT22;939;51.426;6.972;2023-03-20T18:58:03;10.70;99.90
1878;DHT22;939;51.426;6.972;2023-03-20T19:00:34;10.80;99.90
1878;DHT22;939;51.426;6.972;2023-03-20T19:03:05;10.80;99.90
1878;DHT22;939;51.426;6.972;2023-03-20T19:05:32;10.80;99.90
1878;DHT22;939;51.426;6.972;2023-03-20T19:08:01;10.90;99.90
1878;DHT22;939;51.426;6.972;2023-03-20T19:10:31;10.90;99.90
1878;DHT22;939;51.426;6.972;2023-03-20T19:12:59;10.80;99.90
1878;DHT22;939;51.426;6.972;2023-03-20T19:15:27;10.90;99.90
1878;DHT22;939;51.426;6.972;2023-03-20T19:17:54;10.80;99.90
1878;DHT22;939;51.426;6.972;2023-03-20T19:20:29;10.80;99.90
1878;DHT22;939;51.426;6.972;2023-03-20T19:22:59;10.70;99.90
1878;DHT22;939;51.426;6.972;2023-03-20T19:25:27;10.80;99.90
1878;DHT22;939;51.426;6.972;2023-03-20T19:27:55;10.70;99.90
1878;DHT22;939;51.426;6.972;2023-03-20T19:30:25;10.70;99.90
1878;DHT22;939;51.426;6.972;2023-03-20T19:32:53;10.70;99.90
1878;DHT22;939;51.426;6.972;2023-03-20T19:35:21;10.80;99.90
1878;DHT22;939;51.426;6.972;2023-03-20T19:37:57;10.90;99.90
1878;DHT22;939;51.426;6.972;2023-03-20T19:40:33;10.80;99.90
1878;DHT22;939;51.426;6.972;2023-03-20T19:43:05;10.70;99.90
1878;DHT22;939;51.426;6.972;2023-03-20T19:45:33;10.70;99.90
1878;DHT22;939;51.426;6.972;2023-03-20T19:48:02;10.50;99.90
1878;DHT22;939;51.426;6.972;2023-03-20T19:50:31;10.50;99.90
1878;DHT22;939;51.426;6.972;2023-03-20T19:53:01;10.60;99.90
1878;DHT22;939;51.426;6.972;2023-03-20T19:55:29;10.60;99.90
1878;DHT22;939;51.426;6.972;2023-03-20T19:57:56;10.60;99.90
1878;DHT22;939;51.426;6.972;2023-03-20T20:00:27;10.70;99.90
1878;DHT22;939;51.426;6.972;2023-03-20T20:02:59;10.50;99.90
1878;DHT22;939;51.426;6.972;2023-03-20T20:05:29;10.50;99.90
1878;DHT22;939;51.426;6.972;2023-03-20T20:08:00;10.60;99.90
1878;DHT22;939;51.426;6.972;2023-03-20T20:10:30;10.60;99.90
1878;DHT22;939;51.426;6.972;2023-03-20T20:13:02;10.50;99.90
1878;DHT22;939;51.426;6.972;2023-03-20T20:15:34;10.50;99.90
1878;DHT22;939;51.426;6.972;2023-03-20T20:18:02;10.40;99.90
1878;DHT22;939;51.426;6.972;2023-03-20T20:20:31;10.40;99.90
1878;DHT22;939;51.426;6.972;2023-03-20T20:23:00;10.50;99.90
1878;DHT22;939;51.426;6.972;2023-03-20T20:25:32;10.60;99.90
1878;DHT22;939;51.426;6.972;2023-03-20T20:28:03;10.40;99.90
1878;DHT22;939;51.426;6.972;2023-03-20T20:30:30;10.30;99.90
1878;DHT22;939;51.426;6.972;2023-03-20T20:33:18;10.30;99.90
1878;DHT22;939;51.426;6.972;2023-03-20T20:35:45;10.40;99.90
1878;DHT22;939;51.426;6.972;2023-03-20T20:38:17;10.40;99.90
1878;DHT22;939;51.426;6.972;2023-03-20T20:40:46;10.50;99.90
1878;DHT22;939;51.426;6.972;2023-03-20T20:43:14;10.40;99.90
1878;DHT22;939;51.426;6.972;2023-03-20T20:45:41;10.40;99.90
1878;DHT22;939;51.426;6.972;2023-03-20T20:48:08;10.50;99.90
1878;DHT22;939;51.426;6.972;2023-03-20T20:50:40;10.50;99.90
1878;DHT22;939;51.426;6.972;2023-03-20T20:53:07;10.60;99.90
1878;DHT22;939;51.426;6.972;2023-03-20T20:55:34;10.60;99.90
1878;DHT22;939;51.426;6.972;2023-03-20T20:58:01;10.70;99.90
1878;DHT22;939;51.426;6.972;2023-03-20T21:00:30;10.60;99.90
1878;DHT22;939;51.426;6.972;2023-03-20T21:02:57;10.70;99.90
1878;DHT22;939;51.426;6.972;2023-03-20T21:05:24;10.60;99.90
1878;DHT22;939;51.426;6.972;2023-03-20T21:07:52;10.40;99.90
1878;DHT22;939;51.426;6.972;2023-03-20T21:10:20;10.40;99.90
1878;DHT22;939;51.426;6.972;2023-03-20T21:12:47;10.40;99.90
1878;DHT22;939;51.426;6.972;2023-03-20T21:15:14;10.40;99.90
1878;DHT22;939;51.426;6.972;2023-03-20T21:17:42;10.50;99.90
1878;DHT22;939;51.426;6.972;2023-03-20T21:20:10;10.60;99.90
1878;DHT22;939;51.426;6.972;2023-03-20T21:22:37;10.70;99.90
1878;DHT22;939;51.426;6.972;2023-03-20T21:25:07;10.70;99.90
1878;DHT22;939;51.426;6.972;2023-03-20T21:27:34;10.80;99.90
1878;DHT22;939;51.426;6.972;2023-03-20T21:30:01;10.90;99.90
1878;DHT22;939;51.426;6.972;2023-03-20T21:32:29;10.90;99.90
1878;DHT22;939;51.426;6.972;2023-03-20T21:35:02;10.90;99.90
1878;DHT22;939;51.426;6.972;2023-03-20T21:37:32;10.90;99.90
1878;DHT22;939;51.426;6.972;2023-03-20T21:40:00;10.80;99.90
1878;DHT22;939;51.426;6.972;2023-03-20T21:42:32;10.80;99.90
1878;DHT22;939;51.426;6.972;2023-03-20T21:44:59;10.90;99.90
1878;DHT22;939;51.426;6.972;2023-03-20T21:47:27;10.80;99.90
1878;DHT22;939;51.426;6.972;2023-03-20T21:49:54;10.70;99.90
1878;DHT22;939;51.426;6.972;2023-03-20T22:06:01;10.80;99.90
1878;DHT22;939;51.426;6.972;2023-03-20T22:08:29;10.90;99.90
1878;DHT22;939;51.426;6.972;2023-03-20T22:10:56;10.90;99.90
1878;DHT22;939;51.426;6.972;2023-03-20T22:13:23;10.90;99.90
1878;DHT22;939;51.426;6.972;2023-03-20T22:15:53;10.90;99.90
1878;DHT22;939;51.426;6.972;2023-03-20T22:18:20;10.90;99.90
1878;DHT22;939;51.426;6.972;2023-03-20T22:20:54;10.90;99.90
1878;DHT22;939;51.426;6.972;2023-03-20T22:23:22;10.80;99.90
1878;DHT22;939;51.426;6.972;2023-03-20T22:25:57;10.90;99.90
1878;DHT22;939;51.426;6.972;2023-03-20T22:28:24;11.00;99.90
1878;DHT22;939;51.426;6.972;2023-03-20T22:33:50;11.00;99.90
1878;DHT22;939;51.426;6.972;2023-03-20T22:36:17;11.00;99.90
1878;DHT22;939;51.426;6.972;2023-03-20T22:38:47;11.10;99.90
1878;DHT22;939;51.426;6.972;2023-03-20T22:41:16;11.10;99.90
1878;DHT22;939;51.426;6.972;2023-03-20T22:43:43;11.20;99.90
1878;DHT22;939;51.426;6.972;2023-03-20T22:46:11;11.20;99.90
1878;DHT22;939;51.426;6.972;2023-03-20T22:48:38;11.10;99.90
1878;DHT22;939;51.426;6.972;2023-03-20T22:51:06;11.20;99.90
1878;DHT22;939;51.426;6.972;2023-03-20T22:53:33;11.10;99.90
1878;DHT22;939;51.426;6.972;2023-03-20T22:56:01;11.10;99.90
1878;DHT22;939;51.426;6.972;2023-03-20T22:58:28;11.10;99.90
1878;DHT22;939;51.426;6.972;2023-03-20T23:00:55;11.10;99.90
1878;DHT22;939;51.426;6.972;2023-03-20T23:03:22;11.10;99.90
1878;DHT22;939;51.426;6.972;2023-03-20T23:05:50;11.00;99.90
1878;DHT22;939;51.426;6.972;2023-03-20T23:08:17;10.90;99.90
1878;DHT22;939;51.426;6.972;2023-03-20T23:10:47;10.90;99.90
1878;DHT22;939;51.426;6.972;2023-03-20T23:13:17;10.90;99.90
1878;DHT22;939;51.426;6.972;2023-03-20T23:15:45;11.00;99.90
1878;DHT22;939;51.426;6.972;2023-03-20T23:18:12;10.90;99.90
1878;DHT22;939;51.426;6.972;2023-03-20T23:20:39;11.00;99.90
1878;DHT22;939;51.426;6.972;2023-03-20T23:23:06;10.90;99.90
1878;DHT22;939;51.426;6.972;2023-03-20T23:25:33;10.80;99.90
1878;DHT22;939;51.426;6.972;2023-03-20T23:28:00;11.00;99.90
1878;DHT22;939;51.426;6.972;2023-03-20T23:30:29;10.90;99.90
1878;DHT22;939;51.426;6.972;2023-03-20T23:32:55;11.00;99.90
1878;DHT22;939;51.426;6.972;2023-03-20T23:35:22;10.90;99.90
1878;DHT22;939;51.426;6.972;2023-03-20T23:37:49;10.90;99.90
1878;DHT22;939;51.426;6.972;2023-03-20T23:40:16;10.90;99.90
1878;DHT22;939;51.426;6.972;2023-03-20T23:42:44;11.00;99.90
1878;DHT22;939;51.426;6.972;2023-03-20T23:45:11;11.00;99.90
1878;DHT22;939;51.426;6.972;2023-03-20T23:47:39;11.00;99.90
1878;DHT22;939;51.426;6.972;2023-03-20T23:50:07;10.80;99.90
1878;DHT22;939;51.426;6.972;2023-03-20T23:52:34;11.00;99.90
1878;DHT22;939;51.426;6.972;2023-03-20T23:55:01;11.00;99.90
1878;DHT22;939;51.426;6.972;2023-03-20T23:57:29;11.00;99.90
1878;DHT22;939;51.426;6.972;2023-03-20T23:59:56;11.00;99.90
